Terminal Aerodrome Forecast
Issued by NWS Binghamton, NY

Home | Current Version | Previous Version | Text Only | Print | Product List | Glossary On
Versions: 1 2 3 4 5 6 7 8 9 10 11 12 13 14 15 16 17 18 19 20 21 22 23 24 25 26 27 28 29
000
FTUS41 KBGM 062320
TAFAVP
TAF
KAVP 062320Z 0700/0724 03010KT P6SM -SHRA OVC015
     FM070300 VRB03KT 4SM -SHRA BR OVC009
     FM071300 VRB03KT P6SM OVC015
     FM071700 VRB03KT P6SM OVC025
     FM072000 24004KT P6SM OVC040=

USA.gov is the U.S. government's official web portal to all federal, state and local government web resources and services.